createdAt,value
2022-12-03T00:04:33.151Z,2.20
2022-12-03T00:09:36.739Z,2.10
2022-12-03T00:14:44.617Z,2.10
2022-12-03T00:19:52.844Z,2.00
2022-12-03T00:24:57.109Z,2.00
2022-12-03T00:30:00.412Z,2.10
2022-12-03T00:35:06.480Z,2.10
2022-12-03T00:40:11.805Z,2.20
2022-12-03T00:45:15.943Z,2.20
2022-12-03T00:50:21.250Z,2.10
2022-12-03T00:55:24.711Z,2.10
2022-12-03T01:00:28.101Z,2.20
2022-12-03T01:05:33.469Z,2.30
2022-12-03T01:10:38.486Z,2.30
2022-12-03T01:15:42.353Z,2.20
2022-12-03T01:20:47.237Z,2.20
2022-12-03T01:25:53.124Z,2.20
2022-12-03T01:31:13.915Z,2.30
2022-12-03T01:36:19.750Z,2.30
2022-12-03T01:41:23.218Z,2.30
2022-12-03T01:46:28.430Z,2.20
2022-12-03T01:51:36.504Z,2.40
2022-12-03T01:56:41.429Z,2.30
2022-12-03T02:01:44.956Z,2.40
2022-12-03T02:06:49.905Z,2.40
2022-12-03T02:11:53.715Z,2.30
2022-12-03T02:16:57.172Z,2.20
2022-12-03T02:22:06.176Z,2.40
2022-12-03T02:27:11.104Z,2.40
2022-12-03T02:32:14.716Z,2.20
2022-12-03T02:37:19.505Z,2.20
2022-12-03T02:42:39.687Z,2.30
2022-12-03T02:47:43.642Z,2.30
2022-12-03T02:52:47.880Z,2.30
2022-12-03T02:57:52.789Z,2.40
2022-12-03T03:02:56.081Z,2.30
2022-12-03T03:08:02.203Z,2.20
2022-12-03T03:13:09.137Z,2.20
2022-12-03T03:18:13.005Z,2.20
2022-12-03T03:23:17.852Z,2.20
2022-12-03T03:28:22.707Z,2.10
2022-12-03T03:33:26.297Z,2.20
2022-12-03T03:38:29.951Z,2.10
2022-12-03T03:43:35.248Z,2.20
2022-12-03T03:48:41.045Z,2.30
2022-12-03T03:53:47.912Z,2.30
2022-12-03T03:58:52.509Z,2.30
2022-12-03T04:03:57.403Z,2.10
2022-12-03T04:09:01.385Z,2.20
2022-12-03T04:14:07.108Z,2.30
2022-12-03T04:19:10.554Z,2.20
2022-12-03T04:24:14.639Z,2.10
2022-12-03T04:29:19.697Z,2.20
2022-12-03T04:34:41.528Z,2.10
2022-12-03T04:39:45.268Z,2.20
2022-12-03T04:44:50.023Z,2.20
2022-12-03T04:49:53.370Z,2.20
2022-12-03T04:54:59.041Z,2.30
2022-12-03T05:00:03.855Z,2.30
2022-12-03T05:05:08.560Z,2.20
2022-12-03T05:10:13.442Z,2.10
2022-12-03T05:15:18.129Z,2.10
2022-12-03T05:20:39.760Z,2.20
2022-12-03T05:25:43.256Z,2.30
2022-12-03T05:30:51.000Z,2.50
2022-12-03T05:35:54.434Z,2.30
2022-12-03T05:40:57.736Z,2.30
2022-12-03T05:46:02.413Z,2.20
2022-12-03T05:51:07.405Z,2.10
2022-12-03T05:56:13.996Z,2.30
2022-12-03T06:01:18.524Z,2.30
2022-12-03T06:06:21.839Z,2.30
2022-12-03T06:11:26.156Z,2.40
2022-12-03T06:16:30.821Z,2.40
2022-12-03T06:21:34.972Z,2.30
2022-12-03T06:26:41.665Z,2.30
2022-12-03T06:31:46.626Z,2.30
2022-12-03T06:36:52.477Z,2.20
2022-12-03T06:41:57.764Z,2.10
2022-12-03T06:47:02.731Z,2.10
2022-12-03T06:52:08.421Z,2.10
2022-12-03T06:57:16.642Z,2.20
2022-12-03T07:02:21.439Z,2.20
2022-12-03T07:07:26.127Z,2.10
2022-12-03T07:12:29.668Z,2.20
2022-12-03T07:17:36.347Z,2.30
2022-12-03T07:22:39.792Z,2.60
2022-12-03T07:27:43.477Z,2.50
2022-12-03T07:32:49.236Z,2.40
2022-12-03T07:37:55.468Z,2.40
2022-12-03T07:42:58.626Z,2.40
2022-12-03T07:48:03.670Z,2.40
2022-12-03T07:53:09.177Z,2.50
2022-12-03T07:58:13.472Z,2.50
2022-12-03T08:03:18.012Z,2.80
2022-12-03T08:08:23.274Z,2.70
2022-12-03T08:13:27.470Z,2.70
2022-12-03T08:18:34.226Z,2.70
2022-12-03T08:23:37.648Z,2.50
2022-12-03T08:28:44.443Z,2.50
2022-12-03T08:33:49.737Z,2.60
2022-12-03T08:38:53.971Z,2.50
2022-12-03T08:43:59.012Z,2.70
2022-12-03T08:49:04.352Z,2.50
2022-12-03T08:54:13.665Z,2.70
2022-12-03T08:59:34.651Z,2.70
2022-12-03T09:04:42.221Z,2.80
2022-12-03T09:09:46.011Z,2.90
2022-12-03T09:14:51.353Z,2.80
2022-12-03T09:19:56.936Z,2.90
2022-12-03T09:25:00.146Z,2.80
2022-12-03T09:30:03.659Z,2.60
2022-12-03T09:35:09.494Z,2.60
2022-12-03T09:40:14.078Z,2.60
2022-12-03T09:45:19.642Z,2.70
2022-12-03T09:50:25.856Z,2.80
2022-12-03T09:55:30.834Z,2.80
2022-12-03T10:00:34.417Z,2.70
2022-12-03T10:05:45.200Z,2.70
2022-12-03T10:10:56.528Z,2.80
2022-12-03T10:16:01.375Z,2.70
2022-12-03T10:21:17.774Z,2.80
2022-12-03T10:26:23.369Z,2.70
2022-12-03T10:31:37.025Z,2.70
2022-12-03T10:36:42.745Z,2.70
2022-12-03T10:41:47.736Z,2.80
2022-12-03T10:47:08.465Z,2.70
2022-12-03T10:52:25.700Z,2.70
2022-12-03T10:57:29.614Z,2.70
2022-12-03T11:02:32.967Z,2.60
2022-12-03T11:07:38.300Z,2.60
2022-12-03T11:12:42.010Z,2.60
2022-12-03T11:17:49.876Z,2.70
2022-12-03T11:22:57.057Z,2.70
2022-12-03T11:28:38.532Z,2.80
2022-12-03T11:33:44.430Z,2.70
2022-12-03T11:38:54.116Z,2.80
2022-12-03T11:44:19.954Z,3.00
2022-12-03T11:49:34.593Z,2.90
2022-12-03T11:54:39.584Z,3.00
2022-12-03T12:00:00.799Z,2.70
2022-12-03T12:05:18.666Z,2.60
2022-12-03T12:10:48.548Z,3.00
2022-12-03T12:15:54.352Z,2.70
2022-12-03T12:21:00.299Z,2.70
2022-12-03T12:26:12.614Z,2.70
2022-12-03T12:31:17.373Z,2.80
2022-12-03T12:36:22.042Z,2.70
2022-12-03T12:41:28.570Z,2.80
2022-12-03T12:46:47.836Z,2.90
2022-12-03T12:51:52.018Z,2.80
2022-12-03T12:56:57.302Z,2.80
2022-12-03T13:02:04.534Z,2.90
2022-12-03T13:07:14.034Z,2.80
2022-12-03T13:12:24.039Z,2.70
2022-12-03T13:17:27.682Z,3.50
2022-12-03T13:22:31.470Z,2.70
2022-12-03T13:27:36.492Z,2.80
2022-12-03T13:32:45.306Z,2.80
2022-12-03T13:37:49.438Z,2.80
2022-12-03T13:42:56.794Z,2.90
2022-12-03T13:48:01.319Z,2.90
2022-12-03T13:53:08.530Z,3.00
2022-12-03T13:58:13.610Z,2.90
2022-12-03T14:03:17.638Z,3.00
2022-12-03T14:08:22.110Z,3.00
2022-12-03T14:13:27.666Z,2.90
2022-12-03T14:18:31.301Z,2.80
2022-12-03T14:23:34.704Z,2.80
2022-12-03T14:28:39.327Z,2.90
2022-12-03T14:33:42.958Z,2.90
2022-12-03T14:38:46.863Z,2.90
2022-12-03T14:43:55.168Z,2.70
2022-12-03T14:48:59.961Z,2.80
2022-12-03T14:54:05.829Z,2.80
2022-12-03T14:59:10.862Z,2.80
2022-12-03T15:04:14.461Z,2.80
2022-12-03T15:09:20.935Z,2.70
2022-12-03T15:14:26.117Z,2.70
2022-12-03T15:19:29.630Z,2.80
2022-12-03T15:24:33.119Z,2.70
2022-12-03T15:29:38.114Z,2.80
2022-12-03T15:34:45.507Z,2.70
2022-12-03T15:39:49.231Z,2.60
2022-12-03T15:45:15.355Z,2.60
2022-12-03T15:50:26.245Z,2.60
2022-12-03T15:55:39.353Z,2.60
2022-12-03T16:00:51.494Z,2.70
2022-12-03T16:06:19.734Z,2.80
2022-12-03T16:11:23.385Z,2.80
2022-12-03T16:16:30.491Z,2.70
2022-12-03T16:21:56.548Z,2.80
2022-12-03T16:28:16.743Z,2.70
2022-12-03T16:33:28.133Z,2.60
2022-12-03T16:38:33.897Z,2.60
2022-12-03T16:43:39.747Z,2.70
2022-12-03T16:48:45.378Z,2.70
2022-12-03T16:53:48.715Z,2.80
2022-12-03T16:58:53.015Z,2.60
2022-12-03T17:03:59.482Z,2.70
2022-12-03T17:09:06.500Z,2.80
2022-12-03T17:14:10.007Z,2.80
2022-12-03T17:19:15.549Z,2.70
2022-12-03T17:24:19.233Z,2.80
2022-12-03T17:29:23.232Z,2.80
2022-12-03T17:34:32.821Z,3.00
2022-12-03T17:39:36.700Z,2.80
2022-12-03T17:44:41.762Z,2.90
2022-12-03T17:49:48.993Z,3.10
2022-12-03T17:55:10.399Z,3.00
2022-12-03T18:00:15.976Z,3.00
2022-12-03T18:05:21.218Z,3.00
2022-12-03T18:10:24.817Z,3.00
2022-12-03T18:15:31.007Z,3.20
2022-12-03T18:20:36.538Z,3.30
2022-12-03T18:25:41.415Z,3.00
2022-12-03T18:30:51.991Z,3.10
2022-12-03T18:35:59.278Z,3.10
2022-12-03T18:41:03.106Z,2.90
2022-12-03T18:46:31.160Z,2.90
2022-12-03T18:51:36.971Z,3.20
2022-12-03T18:56:41.278Z,3.10
2022-12-03T19:01:45.114Z,3.00
2022-12-03T19:06:51.387Z,3.20
2022-12-03T19:11:54.544Z,3.00
2022-12-03T19:16:58.433Z,2.90
2022-12-03T19:22:03.493Z,3.20
2022-12-03T19:27:08.049Z,3.00
2022-12-03T19:32:11.241Z,3.00
2022-12-03T19:37:16.498Z,3.00
2022-12-03T19:42:20.303Z,2.90
2022-12-03T19:47:25.348Z,3.20
2022-12-03T19:52:30.162Z,3.10
2022-12-03T19:57:34.593Z,3.00
2022-12-03T20:02:38.697Z,2.90
2022-12-03T20:07:44.678Z,2.80
2022-12-03T20:12:49.259Z,2.90
2022-12-03T20:17:54.304Z,2.90
2022-12-03T20:22:59.095Z,2.80
2022-12-03T20:28:03.634Z,2.90
2022-12-03T20:33:11.921Z,2.90
2022-12-03T20:38:18.775Z,2.70
2022-12-03T20:43:24.066Z,2.80
2022-12-03T20:48:27.757Z,2.90
2022-12-03T20:53:32.990Z,2.90
2022-12-03T20:58:37.578Z,3.00
2022-12-03T21:03:42.557Z,2.90
2022-12-03T21:08:47.411Z,3.00
2022-12-03T21:13:51.430Z,3.00
2022-12-03T21:18:54.775Z,3.20
2022-12-03T21:23:59.962Z,3.20
2022-12-03T21:29:03.664Z,3.40
2022-12-03T21:34:17.002Z,3.50
2022-12-03T21:39:23.795Z,3.30
2022-12-03T21:44:27.892Z,3.40
2022-12-03T21:49:31.674Z,3.90
2022-12-03T21:54:37.497Z,3.60
2022-12-03T21:59:40.862Z,3.40
2022-12-03T22:04:44.802Z,3.20
2022-12-03T22:09:50.964Z,3.00
2022-12-03T22:14:57.128Z,3.00
2022-12-03T22:20:00.620Z,3.20
2022-12-03T22:25:06.369Z,3.30
2022-12-03T22:30:11.168Z,3.10
2022-12-03T22:35:16.032Z,3.00
2022-12-03T22:40:21.551Z,2.90
2022-12-03T22:45:25.239Z,2.70
2022-12-03T22:50:28.641Z,3.00
2022-12-03T22:55:33.605Z,3.10
2022-12-03T23:00:39.034Z,3.10
2022-12-03T23:05:42.233Z,3.20
2022-12-03T23:10:48.177Z,3.10
2022-12-03T23:15:52.591Z,3.10
2022-12-03T23:20:58.301Z,3.30
2022-12-03T23:26:06.224Z,3.10
2022-12-03T23:31:18.081Z,3.30
2022-12-03T23:36:22.573Z,3.30
2022-12-03T23:41:28.267Z,3.30
2022-12-03T23:46:31.496Z,3.10
2022-12-03T23:51:34.863Z,3.20
2022-12-03T23:56:43.985Z,3.10
